Time;durP1;ratioP1;P1;durP2;ratioP2;P2;SDS_P1;SDS_P2;PMS_P1;PMS_P2;Temp;Humidity;BMP_temperature;BMP_pressure;BME280_temperature;BME280_humidity;BME280_pressure;Samples;Min_cycle;Max_cycle;Signal;HPM_P1;HPM_P2
2022/01/24 00:02:07;;;;;;;62.28;25.83;;;2.90;99.90;;;;;;5028363;28;20065;-62
2022/01/24 00:04:37;;;;;;;61.78;26.25;;;3.00;99.90;;;;;;5027969;28;20046;-62
2022/01/24 00:07:06;;;;;;;59.40;25.17;;;2.90;99.90;;;;;;5027086;28;20049;-62
2022/01/24 00:09:34;;;;;;;61.53;24.67;;;2.90;99.90;;;;;;5011980;28;20053;-64
2022/01/24 00:12:14;;;;;;;56.65;24.58;;;2.90;99.90;;;;;;5008331;28;20050;-64
2022/01/24 00:18:07;;;;;;;51.28;21.17;;;2.80;99.90;;;;;;5008419;28;20053;-62
2022/01/24 00:28:31;;;;;;;55.75;23.15;;;2.70;99.90;;;;;;5059620;28;20057;-61
2022/01/24 00:30:59;;;;;;;55.60;22.17;;;2.70;99.90;;;;;;5026956;28;20064;-63
2022/01/24 00:33:27;;;;;;;53.80;21.83;;;2.60;99.90;;;;;;5026323;28;20564;-62
2022/01/24 00:35:54;;;;;;;49.80;23.85;;;2.60;99.90;;;;;;5030151;28;20062;-62
2022/01/24 00:38:22;;;;;;;55.85;23.60;;;2.60;99.90;;;;;;5026142;28;20034;-62
2022/01/24 00:40:50;;;;;;;46.40;21.80;;;2.60;99.90;;;;;;5012285;28;20533;-63
2022/01/24 00:43:26;;;;;;;56.33;22.10;;;2.60;99.90;;;;;;5017301;28;20047;-62
2022/01/24 00:46:05;;;;;;;50.72;22.38;;;2.60;99.90;;;;;;5031450;28;20053;-62
2022/01/24 00:54:01;;;;;;;49.75;22.38;;;2.60;99.90;;;;;;5055535;28;20050;-63
2022/01/24 00:56:28;;;;;;;53.65;22.58;;;2.60;99.90;;;;;;5011675;28;20054;-68
2022/01/24 00:58:56;;;;;;;48.83;22.05;;;2.70;99.90;;;;;;5022747;28;20049;-64
2022/01/24 01:01:24;;;;;;;49.92;21.90;;;2.60;99.90;;;;;;5030010;28;20046;-67
2022/01/24 01:03:51;;;;;;;53.75;22.88;;;2.60;99.90;;;;;;5026325;28;20049;-64
2022/01/24 01:06:19;;;;;;;53.30;23.42;;;2.70;99.90;;;;;;5027411;28;20049;-66
2022/01/24 01:19:59;;;;;;;49.08;21.80;;;2.70;99.90;;;;;;5031114;28;20041;-63
2022/01/24 01:22:27;;;;;;;56.13;22.67;;;2.70;99.90;;;;;;5030874;28;20408;-62
2022/01/24 01:24:56;;;;;;;47.05;21.08;;;2.70;99.90;;;;;;5015782;28;20042;-61
2022/01/24 01:27:35;;;;;;;46.70;21.40;;;2.70;99.90;;;;;;5015523;28;20063;-62
2022/01/24 01:30:17;;;;;;;48.70;21.88;;;2.60;99.90;;;;;;5030734;28;20053;-62
2022/01/24 01:38:45;;;;;;;40.85;20.35;;;2.70;99.90;;;;;;5014015;28;20056;-63
2022/01/24 01:57:17;;;;;;;37.65;17.52;;;2.60;99.90;;;;;;5030544;28;20071;-62
2022/01/24 01:59:46;;;;;;;37.60;17.63;;;2.50;99.90;;;;;;5030440;28;20037;-63
2022/01/24 02:02:14;;;;;;;33.70;16.97;;;2.50;99.90;;;;;;5029481;28;20505;-64
2022/01/24 02:04:42;;;;;;;38.20;16.98;;;2.50;99.90;;;;;;5030179;28;20052;-65
2022/01/24 02:07:14;;;;;;;38.08;16.85;;;2.40;99.90;;;;;;5030202;28;20049;-65
2022/01/24 02:09:45;;;;;;;36.15;17.88;;;2.40;99.90;;;;;;5019532;28;20042;-62
2022/01/24 02:12:13;;;;;;;33.78;17.05;;;2.40;99.90;;;;;;5009104;28;20045;-62
2022/01/24 02:14:48;;;;;;;38.83;17.55;;;2.40;99.90;;;;;;5024800;28;20052;-62
2022/01/24 02:17:24;;;;;;;35.90;16.40;;;2.40;99.90;;;;;;5030431;28;20048;-62
2022/01/24 02:20:25;;;;;;;35.15;16.05;;;2.40;99.90;;;;;;5028738;28;20053;-64
2022/01/24 02:23:17;;;;;;;38.90;17.52;;;2.40;99.90;;;;;;5027959;28;20509;-62
2022/01/24 02:25:40;;;;;;;37.35;16.95;;;2.40;99.90;;;;;;5029967;28;20045;-63
2022/01/24 02:28:12;;;;;;;43.13;18.45;;;2.40;99.90;;;;;;5015402;28;20065;-62
2022/01/24 02:33:11;;;;;;;37.65;18.42;;;2.40;99.90;;;;;;5012829;28;20049;-62
2022/01/24 02:35:39;;;;;;;39.08;18.48;;;2.40;99.90;;;;;;5012888;28;20050;-63
2022/01/24 02:38:18;;;;;;;37.95;16.92;;;2.40;99.90;;;;;;5049452;28;20071;-62
2022/01/24 02:46:00;;;;;;;36.22;17.40;;;2.40;99.90;;;;;;5032577;28;20041;-63
2022/01/24 02:49:14;;;;;;;37.40;17.15;;;2.40;99.90;;;;;;5032739;28;20061;-69
2022/01/24 02:54:24;;;;;;;40.55;18.95;;;2.30;99.90;;;;;;5032547;28;20045;-65
2022/01/24 02:56:51;;;;;;;36.60;16.55;;;2.30;99.90;;;;;;5032409;28;20050;-70
2022/01/24 02:59:19;;;;;;;39.70;18.20;;;2.30;99.90;;;;;;5031753;28;20038;-68
2022/01/24 03:01:47;;;;;;;37.22;16.00;;;2.30;99.90;;;;;;5032636;28;20049;-66
2022/01/24 03:04:15;;;;;;;34.50;17.83;;;2.30;99.90;;;;;;5032387;28;20071;-67
2022/01/24 03:06:43;;;;;;;40.95;18.75;;;2.40;99.90;;;;;;5031988;28;20049;-70
2022/01/24 03:09:11;;;;;;;43.17;17.00;;;2.30;99.90;;;;;;5032232;28;20056;-69
2022/01/24 03:14:32;;;;;;;43.30;19.55;;;2.30;99.90;;;;;;5031994;28;20049;-66
2022/01/24 03:17:00;;;;;;;41.80;17.75;;;2.40;99.90;;;;;;5030897;28;20068;-70
2022/01/24 03:19:28;;;;;;;41.53;19.40;;;2.40;99.90;;;;;;5030916;28;20050;-68
2022/01/24 03:21:55;;;;;;;39.30;16.80;;;2.30;99.90;;;;;;5032049;28;20053;-70
2022/01/24 03:24:23;;;;;;;39.38;17.30;;;2.30;99.90;;;;;;5032007;28;20661;-71
2022/01/24 03:26:51;;;;;;;38.17;17.45;;;2.40;99.90;;;;;;5031920;28;20049;-65
2022/01/24 03:29:18;;;;;;;38.83;17.23;;;2.40;99.90;;;;;;5031975;28;20045;-67
2022/01/24 03:31:46;;;;;;;40.25;17.70;;;2.30;99.90;;;;;;5031902;28;20053;-69
2022/01/24 03:34:14;;;;;;;41.05;19.23;;;2.30;99.90;;;;;;4998287;28;20046;-62
2022/01/24 03:36:42;;;;;;;46.92;17.65;;;2.30;99.90;;;;;;5031707;28;20048;-62
2022/01/24 03:39:11;;;;;;;43.65;18.35;;;2.20;99.90;;;;;;5031649;28;20424;-61
2022/01/24 03:41:40;;;;;;;39.88;17.65;;;2.20;99.90;;;;;;5032021;28;20046;-62
2022/01/24 03:44:11;;;;;;;41.70;16.97;;;2.20;99.90;;;;;;5031623;28;20041;-62
2022/01/24 03:46:59;;;;;;;42.00;18.60;;;2.20;99.90;;;;;;5030549;28;20302;-61
2022/01/24 03:49:48;;;;;;;42.15;17.63;;;2.20;99.90;;;;;;5031748;28;20050;-62
2022/01/24 03:52:18;;;;;;;40.60;18.50;;;2.20;99.90;;;;;;5031498;28;20052;-62
2022/01/24 03:54:47;;;;;;;44.90;18.75;;;2.20;99.90;;;;;;5030271;28;20068;-62
2022/01/24 03:57:17;;;;;;;49.80;18.25;;;2.20;99.90;;;;;;5031515;28;20064;-63
2022/01/24 03:59:45;;;;;;;47.25;18.77;;;2.20;99.90;;;;;;5031604;28;20049;-61
2022/01/24 04:02:14;;;;;;;43.10;18.50;;;2.20;99.90;;;;;;5031495;28;20056;-62
2022/01/24 04:04:42;;;;;;;40.83;18.05;;;2.20;99.90;;;;;;5031470;28;20061;-62
2022/01/24 04:07:10;;;;;;;44.10;18.30;;;2.20;99.90;;;;;;5031490;28;20389;-62
2022/01/24 04:09:40;;;;;;;50.28;18.65;;;2.20;99.90;;;;;;5031754;28;20492;-62
2022/01/24 04:12:10;;;;;;;47.65;18.80;;;2.20;99.90;;;;;;5034458;28;20049;-62
2022/01/24 04:22:12;;;;;;;44.42;18.90;;;2.10;99.90;;;;;;5035328;28;20048;-63
2022/01/24 04:27:43;;;;;;;51.75;20.05;;;2.00;99.90;;;;;;5159776;23;20052;-59
2022/01/24 04:30:12;;;;;;;48.88;19.75;;;2.00;99.90;;;;;;4919101;29;20049;-60
2022/01/24 04:32:40;;;;;;;45.78;19.15;;;2.00;99.90;;;;;;4919043;29;20052;-60
2022/01/24 04:35:08;;;;;;;47.67;21.52;;;2.00;99.90;;;;;;4917856;29;20048;-59
2022/01/24 04:37:36;;;;;;;52.92;20.50;;;2.10;99.90;;;;;;4918850;29;20646;-60
2022/01/24 04:40:06;;;;;;;45.42;19.98;;;2.10;99.90;;;;;;4917288;29;20052;-60
2022/01/24 04:42:43;;;;;;;51.13;20.88;;;2.10;99.90;;;;;;4917586;29;20495;-61
2022/01/24 04:56:04;;;;;;;53.00;19.90;;;2.10;99.90;;;;;;4918399;29;20048;-65
2022/01/24 04:58:32;;;;;;;45.95;20.05;;;2.00;99.90;;;;;;4918404;29;20503;-67
2022/01/24 05:01:00;;;;;;;51.38;20.38;;;2.00;99.90;;;;;;4918196;29;20483;-63
2022/01/24 05:03:29;;;;;;;54.85;20.80;;;2.00;99.90;;;;;;4918362;29;20048;-64
2022/01/24 05:06:00;;;;;;;49.17;20.77;;;2.00;99.90;;;;;;4918305;29;20048;-61
2022/01/24 05:08:28;;;;;;;50.47;20.13;;;2.00;99.90;;;;;;4918407;29;20534;-63
2022/01/24 05:11:07;;;;;;;49.17;20.80;;;2.00;99.90;;;;;;4918137;29;20040;-60
2022/01/24 05:24:38;;;;;;;49.50;18.95;;;2.00;99.90;;;;;;4921685;29;20067;-69
2022/01/24 05:27:08;;;;;;;45.47;17.85;;;2.00;99.90;;;;;;4917096;29;20076;-60
2022/01/24 05:29:36;;;;;;;48.17;20.10;;;2.00;99.90;;;;;;4917835;29;20216;-64
2022/01/24 05:32:07;;;;;;;49.75;19.25;;;2.00;99.90;;;;;;4917926;29;20404;-60
2022/01/24 05:34:35;;;;;;;50.75;20.40;;;2.00;99.90;;;;;;4917647;29;20058;-59
2022/01/24 05:37:03;;;;;;;45.78;19.08;;;2.00;99.90;;;;;;4917684;29;20063;-65
2022/01/24 05:39:32;;;;;;;47.47;19.90;;;1.90;99.90;;;;;;4917705;29;20044;-61
2022/01/24 05:41:59;;;;;;;48.53;19.60;;;1.90;99.90;;;;;;4917617;29;20056;-60
2022/01/24 05:44:28;;;;;;;53.58;19.65;;;1.90;99.90;;;;;;4916463;29;20055;-60
2022/01/24 05:46:59;;;;;;;43.90;18.95;;;1.90;99.90;;;;;;4914303;29;20052;-61
2022/01/24 05:49:27;;;;;;;50.90;19.35;;;1.90;99.90;;;;;;4907960;29;20049;-61
2022/01/24 05:52:18;;;;;;;48.35;18.63;;;1.90;99.90;;;;;;4894967;29;20089;-59
2022/01/24 05:54:46;;;;;;;49.80;20.10;;;1.90;99.90;;;;;;4895374;29;20048;-61
2022/01/24 05:57:16;;;;;;;53.97;20.27;;;1.90;99.90;;;;;;4894925;29;20056;-60
2022/01/24 05:59:47;;;;;;;52.08;21.17;;;1.80;99.90;;;;;;4895280;29;20051;-60
2022/01/24 06:02:18;;;;;;;51.35;19.50;;;1.90;99.90;;;;;;4894804;29;20051;-61
2022/01/24 06:04:47;;;;;;;53.53;21.05;;;1.90;99.90;;;;;;4891971;29;20048;-59
2022/01/24 06:07:15;;;;;;;56.83;22.55;;;1.90;99.90;;;;;;4891894;29;20052;-59
2022/01/24 06:09:43;;;;;;;57.78;21.85;;;1.80;99.90;;;;;;4878459;29;20059;-63
2022/01/24 06:12:11;;;;;;;52.40;21.58;;;1.90;99.90;;;;;;4895156;29;20059;-60
2022/01/24 06:14:39;;;;;;;58.58;23.10;;;1.90;99.90;;;;;;4894764;29;20298;-61
2022/01/24 06:17:08;;;;;;;64.47;23.08;;;1.90;99.90;;;;;;4893559;29;20048;-60
2022/01/24 06:19:38;;;;;;;56.55;22.98;;;1.90;99.90;;;;;;4894785;29;20075;-59
2022/01/24 06:22:06;;;;;;;57.53;21.95;;;1.90;99.90;;;;;;4892400;29;20063;-66
2022/01/24 06:24:42;;;;;;;50.72;21.90;;;1.90;99.90;;;;;;4891632;29;20503;-62
2022/01/24 06:27:30;;;;;;;54.58;20.50;;;1.90;99.90;;;;;;4891274;29;20055;-63
2022/01/24 06:29:58;;;;;;;60.25;22.23;;;1.90;99.90;;;;;;4891478;29;20048;-63
2022/01/24 06:32:26;;;;;;;54.83;21.52;;;1.90;99.90;;;;;;4889567;29;20056;-59
2022/01/24 06:34:54;;;;;;;56.55;19.17;;;2.00;99.90;;;;;;4891860;29;20041;-58
2022/01/24 06:37:25;;;;;;;51.60;21.25;;;2.00;99.90;;;;;;4891223;29;20488;-59
2022/01/24 06:39:54;;;;;;;51.17;21.08;;;2.00;99.90;;;;;;4891186;29;20048;-62
2022/01/24 06:42:23;;;;;;;53.20;21.33;;;1.90;99.90;;;;;;4893303;29;20484;-62
2022/01/24 06:44:56;;;;;;;59.88;22.40;;;1.90;99.90;;;;;;4894446;29;20067;-60
2022/01/24 06:47:24;;;;;;;55.33;20.67;;;1.90;99.90;;;;;;4894297;29;20060;-62
2022/01/24 06:49:52;;;;;;;53.05;21.50;;;1.90;99.90;;;;;;4894612;29;20049;-61
2022/01/24 06:52:23;;;;;;;56.42;21.20;;;2.00;99.90;;;;;;4895496;29;20044;-61
2022/01/24 06:54:50;;;;;;;62.42;22.48;;;2.00;99.90;;;;;;4893899;29;20408;-60
2022/01/24 06:57:19;;;;;;;55.30;22.73;;;2.00;99.90;;;;;;4891110;29;20076;-60
2022/01/24 06:59:47;;;;;;;60.65;23.55;;;2.00;99.90;;;;;;4891476;29;20392;-59
2022/01/24 07:02:17;;;;;;;55.38;23.08;;;1.90;99.90;;;;;;4890041;29;20056;-58
2022/01/24 07:04:45;;;;;;;57.22;22.42;;;1.90;99.90;;;;;;4902065;29;20041;-64
2022/01/24 07:07:22;;;;;;;60.50;22.67;;;1.90;99.90;;;;;;4893506;29;20053;-65
2022/01/24 07:09:50;;;;;;;56.20;20.98;;;1.90;99.90;;;;;;4894125;29;20048;-67
2022/01/24 07:12:18;;;;;;;63.30;22.75;;;1.80;99.90;;;;;;4893765;29;20063;-67
2022/01/24 07:14:46;;;;;;;65.55;23.33;;;1.90;99.90;;;;;;4893894;29;20063;-63
2022/01/24 07:17:32;;;;;;;64.65;22.90;;;1.90;99.90;;;;;;4893813;29;20408;-66
2022/01/24 07:20:00;;;;;;;63.58;22.65;;;1.80;99.90;;;;;;4893976;29;20060;-59
2022/01/24 07:22:29;;;;;;;62.55;22.10;;;1.80;99.90;;;;;;4893571;29;20370;-59
2022/01/24 07:25:00;;;;;;;65.10;23.85;;;1.80;99.90;;;;;;4893785;29;20057;-59
2022/01/24 07:27:28;;;;;;;64.03;24.23;;;1.80;99.90;;;;;;4891991;29;20056;-59
2022/01/24 07:29:58;;;;;;;62.90;23.27;;;1.80;99.90;;;;;;4893525;29;20072;-61
2022/01/24 07:32:37;;;;;;;64.97;23.88;;;1.70;99.90;;;;;;4893416;29;20045;-58
2022/01/24 07:35:06;;;;;;;62.85;24.10;;;1.70;99.90;;;;;;4893517;29;20543;-59
2022/01/24 07:37:37;;;;;;;65.25;25.15;;;1.80;99.90;;;;;;4889866;29;20049;-59
2022/01/24 07:40:15;;;;;;;64.22;23.35;;;1.70;99.90;;;;;;4890577;29;20396;-59
2022/01/24 07:45:32;;;;;;;65.05;23.75;;;1.70;99.90;;;;;;4892576;29;20056;-59
2022/01/24 07:48:00;;;;;;;63.25;24.42;;;1.80;99.90;;;;;;4893161;29;20051;-67
2022/01/24 07:50:29;;;;;;;58.63;22.52;;;1.70;99.90;;;;;;4893815;29;20053;-60
2022/01/24 07:53:00;;;;;;;74.70;25.38;;;1.80;99.90;;;;;;4893419;29;20053;-61
2022/01/24 07:55:28;;;;;;;60.67;23.33;;;1.70;99.90;;;;;;4892702;29;20052;-70
2022/01/24 07:57:59;;;;;;;67.00;22.92;;;1.70;99.90;;;;;;4894831;29;20049;-66
2022/01/24 08:00:30;;;;;;;68.03;23.95;;;1.70;99.90;;;;;;4897343;29;20052;-59
2022/01/24 08:02:58;;;;;;;64.32;23.77;;;1.70;99.90;;;;;;4890705;29;20049;-59
2022/01/24 08:05:27;;;;;;;78.25;24.63;;;1.80;99.90;;;;;;4889237;29;20060;-60
2022/01/24 08:07:55;;;;;;;67.57;24.13;;;1.80;99.90;;;;;;4890174;29;20071;-64
2022/01/24 08:10:24;;;;;;;67.47;25.08;;;1.70;99.90;;;;;;4889876;29;20052;-65
2022/01/24 08:12:52;;;;;;;69.82;24.10;;;1.70;99.90;;;;;;4889970;29;20055;-57
2022/01/24 08:15:20;;;;;;;71.00;26.33;;;1.80;99.90;;;;;;4890560;29;20048;-63
2022/01/24 08:17:48;;;;;;;71.57;24.65;;;1.80;99.90;;;;;;4893108;29;20072;-64
2022/01/24 08:20:17;;;;;;;74.78;25.67;;;1.70;99.90;;;;;;4893354;29;20059;-60
2022/01/24 08:23:05;;;;;;;74.90;24.42;;;1.80;99.90;;;;;;4892819;29;20126;-61
2022/01/24 08:25:33;;;;;;;71.20;25.25;;;1.80;99.90;;;;;;4892919;29;20857;-59
2022/01/24 08:28:03;;;;;;;72.25;25.13;;;1.80;99.90;;;;;;4892878;29;20049;-64
2022/01/24 08:30:33;;;;;;;78.75;26.77;;;1.80;99.90;;;;;;4891746;29;20041;-61
2022/01/24 08:33:01;;;;;;;73.75;25.58;;;1.80;99.90;;;;;;4892909;29;20048;-59
2022/01/24 08:35:29;;;;;;;89.70;26.10;;;1.80;99.90;;;;;;4893041;29;20048;-62
2022/01/24 08:37:57;;;;;;;86.70;27.40;;;1.80;99.90;;;;;;4876288;29;20404;-59
2022/01/24 08:40:31;;;;;;;70.85;25.60;;;1.80;99.90;;;;;;4893071;29;20067;-62
2022/01/24 08:43:05;;;;;;;82.68;26.33;;;1.80;99.90;;;;;;4892878;29;20044;-60
2022/01/24 08:48:12;;;;;;;85.18;27.05;;;1.80;99.90;;;;;;4893192;29;20049;-63
2022/01/24 08:50:41;;;;;;;74.30;24.63;;;1.90;99.90;;;;;;4893129;29;20053;-60
2022/01/24 08:53:10;;;;;;;81.77;26.87;;;1.80;99.90;;;;;;4892874;29;20045;-58
2022/01/24 08:55:39;;;;;;;90.90;26.10;;;1.80;99.90;;;;;;4893240;29;20317;-61
2022/01/24 08:58:11;;;;;;;87.87;27.80;;;1.80;99.90;;;;;;4896404;29;20048;-59
2022/01/24 09:00:40;;;;;;;73.43;24.02;;;1.90;99.90;;;;;;4896416;29;20307;-59
2022/01/24 09:03:09;;;;;;;78.70;25.40;;;1.90;99.90;;;;;;4896134;29;20064;-58
2022/01/24 09:05:41;;;;;;;83.15;27.73;;;1.90;99.90;;;;;;4896404;29;20056;-59
2022/01/24 09:08:10;;;;;;;79.55;27.38;;;1.90;99.90;;;;;;4895937;29;20060;-61
2022/01/24 09:10:39;;;;;;;78.30;25.13;;;1.90;99.90;;;;;;4896340;29;20053;-59
2022/01/24 09:13:08;;;;;;;79.65;26.85;;;1.90;99.90;;;;;;4895955;29;20057;-60
2022/01/24 09:15:36;;;;;;;72.82;24.20;;;1.90;99.90;;;;;;4896171;29;20523;-61
2022/01/24 09:18:04;;;;;;;71.47;23.77;;;1.90;99.90;;;;;;4895924;29;20421;-58
2022/01/24 09:20:34;;;;;;;83.03;27.23;;;1.90;99.90;;;;;;4894878;29;20056;-59
2022/01/24 09:23:03;;;;;;;79.80;27.00;;;1.90;99.90;;;;;;4895945;29;20354;-58
2022/01/24 09:25:30;;;;;;;79.15;24.70;;;1.90;99.90;;;;;;4894795;29;20065;-59
2022/01/24 09:27:58;;;;;;;81.30;25.70;;;1.90;99.90;;;;;;4895587;29;20057;-59
2022/01/24 09:30:27;;;;;;;79.63;26.17;;;1.90;99.90;;;;;;4895964;29;20396;-58
2022/01/24 09:32:55;;;;;;;85.00;26.90;;;1.90;99.90;;;;;;4895385;29;20064;-61
2022/01/24 09:35:23;;;;;;;89.63;26.92;;;1.90;99.90;;;;;;4895880;29;20060;-61
2022/01/24 09:37:51;;;;;;;81.63;26.42;;;1.90;99.90;;;;;;4895479;29;20040;-58
2022/01/24 09:40:19;;;;;;;83.30;27.48;;;1.90;99.90;;;;;;4895856;29;20055;-60
2022/01/24 09:42:48;;;;;;;81.57;27.00;;;1.90;99.90;;;;;;4895335;29;20453;-64
2022/01/24 09:45:17;;;;;;;83.07;27.92;;;2.00;99.90;;;;;;4895800;29;20060;-63
2022/01/24 09:47:45;;;;;;;82.22;27.25;;;2.00;99.90;;;;;;4895303;29;20067;-66
2022/01/24 09:50:16;;;;;;;78.75;24.75;;;2.00;99.90;;;;;;4895560;29;20053;-61
2022/01/24 09:52:45;;;;;;;80.95;25.83;;;2.00;99.90;;;;;;4895252;29;20056;-58
2022/01/24 09:55:15;;;;;;;76.63;26.13;;;2.00;99.90;;;;;;4895410;29;20045;-60
2022/01/24 09:57:47;;;;;;;84.75;24.67;;;2.00;99.90;;;;;;4895351;29;20432;-59
2022/01/24 10:00:21;;;;;;;74.63;25.67;;;2.00;99.90;;;;;;4895020;29;20049;-59
2022/01/24 10:02:52;;;;;;;82.88;26.38;;;2.00;99.90;;;;;;4895188;29;20044;-57
2022/01/24 10:05:42;;;;;;;76.53;25.45;;;2.00;99.90;;;;;;4895776;29;20496;-59
2022/01/24 10:08:30;;;;;;;95.90;28.95;;;2.00;99.90;;;;;;4894096;29;20045;-58
2022/01/24 10:11:02;;;;;;;81.03;26.27;;;2.10;99.90;;;;;;4895172;29;20052;-60
2022/01/24 10:16:35;;;;;;;88.40;27.92;;;2.10;99.90;;;;;;4893847;29;20079;-61
2022/01/24 10:19:18;;;;;;;88.22;27.67;;;2.10;99.90;;;;;;4894874;29;20063;-61
2022/01/24 10:22:04;;;;;;;84.90;30.58;;;2.10;99.90;;;;;;4894784;29;20048;-60
2022/01/24 10:24:45;;;;;;;93.47;29.15;;;2.10;99.90;;;;;;4894554;29;20067;-60
2022/01/24 10:27:13;;;;;;;;;;;2.20;99.90;;;;;;4895185;29;20536;-59
2022/01/24 10:30:03;;;;;;;85.03;28.33;;;2.10;99.90;;;;;;4895248;29;19931;-58
2022/01/24 10:32:35;;;;;;;88.03;29.50;;;2.20;99.90;;;;;;4895445;29;20048;-65
2022/01/24 10:35:20;;;;;;;87.85;28.00;;;2.20;99.90;;;;;;4897538;29;20056;-61
2022/01/24 10:37:52;;;;;;;81.20;26.83;;;2.20;99.90;;;;;;4896358;29;20056;-57
2022/01/24 10:40:46;;;;;;;80.28;26.67;;;2.20;99.90;;;;;;4894682;29;20052;-58
2022/01/24 10:43:24;;;;;;;84.32;30.20;;;2.20;99.90;;;;;;4894260;29;20044;-59
2022/01/24 10:45:54;;;;;;;82.50;28.60;;;2.30;99.90;;;;;;4894637;29;20048;-59
2022/01/24 10:48:28;;;;;;;82.40;27.15;;;2.30;99.90;;;;;;4894242;29;20044;-58
2022/01/24 10:51:26;;;;;;;84.15;29.10;;;2.30;99.90;;;;;;4894738;29;20411;-59
2022/01/24 10:53:56;;;;;;;78.68;27.38;;;2.30;99.90;;;;;;4904882;29;20063;-60
2022/01/24 10:56:29;;;;;;;97.35;29.02;;;2.30;99.90;;;;;;4913063;29;20040;-60
2022/01/24 10:59:11;;;;;;;84.55;29.13;;;2.30;99.90;;;;;;4912957;29;20423;-63
2022/01/24 11:01:43;;;;;;;82.38;27.13;;;2.30;99.90;;;;;;4913160;29;20056;-63
2022/01/24 11:04:15;;;;;;;81.45;28.48;;;2.30;99.90;;;;;;4913005;29;20503;-65
2022/01/24 11:06:59;;;;;;;79.93;28.20;;;2.40;99.90;;;;;;4896365;29;20439;-59
2022/01/24 11:09:28;;;;;;;79.00;26.20;;;2.40;99.90;;;;;;4893929;29;20067;-60
2022/01/24 11:12:08;;;;;;;85.13;26.98;;;2.30;99.90;;;;;;4894004;29;20052;-62
2022/01/24 11:14:41;;;;;;;79.43;26.45;;;2.30;99.90;;;;;;4893863;29;20055;-60
2022/01/24 11:17:13;;;;;;;84.65;26.45;;;2.30;99.90;;;;;;4894093;29;20053;-66
2022/01/24 11:19:48;;;;;;;87.03;28.35;;;2.30;99.90;;;;;;4892592;29;20056;-60
2022/01/24 11:22:20;;;;;;;89.28;27.17;;;2.30;99.90;;;;;;4893773;29;20475;-62
2022/01/24 11:25:00;;;;;;;79.38;26.00;;;2.30;99.90;;;;;;4893998;29;20416;-66
2022/01/24 11:27:44;;;;;;;75.43;26.15;;;2.40;99.90;;;;;;4893609;29;20068;-67
2022/01/24 11:30:13;;;;;;;78.20;25.23;;;2.40;99.90;;;;;;4893814;29;20488;-60
2022/01/24 11:33:10;;;;;;;77.57;26.13;;;2.40;99.90;;;;;;4893341;29;20460;-61
2022/01/24 11:35:50;;;;;;;76.97;25.67;;;2.40;99.90;;;;;;4893968;29;20536;-58
2022/01/24 11:38:26;;;;;;;77.07;24.98;;;2.50;99.90;;;;;;4893682;29;20075;-63
2022/01/24 11:41:13;;;;;;;79.47;26.15;;;2.50;99.90;;;;;;4893558;29;20948;-60
2022/01/24 11:43:44;;;;;;;88.18;27.55;;;2.60;99.90;;;;;;4893325;29;20053;-66
2022/01/24 11:46:41;;;;;;;84.40;26.35;;;2.60;99.90;;;;;;4893543;29;20408;-67
2022/01/24 11:49:18;;;;;;;81.07;27.30;;;2.60;99.90;;;;;;4893390;29;20627;-62
2022/01/24 11:52:00;;;;;;;87.05;27.88;;;2.50;99.90;;;;;;4893955;29;20053;-63
2022/01/24 11:54:56;;;;;;;89.15;28.20;;;2.50;99.90;;;;;;4893182;29;20056;-61
2022/01/24 11:57:49;;;;;;;82.00;27.70;;;2.50;99.90;;;;;;4892323;29;20063;-60
2022/01/24 12:00:18;;;;;;;77.32;25.35;;;2.60;99.90;;;;;;4893370;29;20049;-59
2022/01/24 12:02:51;;;;;;;74.85;25.55;;;2.60;99.90;;;;;;4893310;29;20056;-60
2022/01/24 12:05:27;;;;;;;90.10;27.63;;;2.60;99.90;;;;;;4892244;29;20057;-59
2022/01/24 12:08:02;;;;;;;75.35;28.33;;;2.60;99.90;;;;;;4893296;29;20048;-62
2022/01/24 12:10:51;;;;;;;77.03;27.20;;;2.60;99.90;;;;;;4891940;29;20055;-60
2022/01/24 12:13:35;;;;;;;91.00;28.65;;;2.60;99.90;;;;;;4892928;29;20130;-62
2022/01/24 12:16:06;;;;;;;77.03;27.35;;;2.60;99.90;;;;;;4892252;29;20056;-61
2022/01/24 12:18:35;;;;;;;94.95;30.15;;;2.60;99.90;;;;;;4892005;29;20504;-63
2022/01/24 12:21:13;;;;;;;83.30;27.83;;;2.70;99.90;;;;;;4892288;29;20047;-60
2022/01/24 12:23:47;;;;;;;96.05;29.25;;;2.70;99.90;;;;;;4892824;29;20055;-60
2022/01/24 12:26:39;;;;;;;86.97;29.77;;;2.70;99.90;;;;;;4892944;29;20057;-59
2022/01/24 12:29:20;;;;;;;89.53;29.58;;;2.80;99.90;;;;;;4893424;29;20049;-69
2022/01/24 12:31:54;;;;;;;82.60;28.10;;;2.80;99.90;;;;;;4894121;29;20059;-60
2022/01/24 12:34:27;;;;;;;71.30;25.90;;;2.80;99.90;;;;;;4896743;29;20049;-62
2022/01/24 12:37:02;;;;;;;90.13;27.77;;;2.70;99.90;;;;;;4896969;29;20497;-64
2022/01/24 12:39:53;;;;;;;85.05;28.13;;;2.70;99.90;;;;;;4896930;29;20071;-63
2022/01/24 12:42:40;;;;;;;81.63;27.52;;;2.70;99.90;;;;;;4896566;29;20056;-62
2022/01/24 12:48:19;;;;;;;74.32;25.70;;;2.60;99.90;;;;;;4896601;29;20059;-63
2022/01/24 12:50:51;;;;;;;72.00;25.75;;;2.70;99.90;;;;;;4896678;29;20052;-59
2022/01/24 12:53:20;;;;;;;74.90;25.48;;;2.70;99.90;;;;;;4896294;29;20056;-65
2022/01/24 12:56:02;;;;;;;69.80;24.63;;;2.60;99.90;;;;;;4895599;29;20056;-58
2022/01/24 12:58:46;;;;;;;75.68;27.63;;;2.70;99.90;;;;;;4896327;29;20037;-62
2022/01/24 13:01:25;;;;;;;74.95;26.25;;;2.30;99.90;;;;;;4896573;29;20064;-64
2022/01/24 13:03:56;;;;;;;73.32;28.13;;;2.60;99.90;;;;;;4894907;29;20051;-60
2022/01/24 13:06:33;;;;;;;77.15;25.70;;;2.60;99.90;;;;;;4896822;29;20041;-60
2022/01/24 13:09:13;;;;;;;72.90;25.25;;;2.60;99.90;;;;;;4896413;29;20060;-61
2022/01/24 13:11:51;;;;;;;80.65;25.20;;;2.60;99.90;;;;;;4897657;29;20420;-61
2022/01/24 13:14:43;;;;;;;79.88;27.85;;;2.60;99.90;;;;;;4896087;29;20412;-62
2022/01/24 13:20:31;;;;;;;74.53;26.35;;;2.60;99.90;;;;;;4896229;29;20580;-61
2022/01/24 13:23:07;;;;;;;74.35;26.35;;;2.60;99.90;;;;;;4896065;29;20440;-57
2022/01/24 13:25:39;;;;;;;83.65;27.90;;;2.70;99.90;;;;;;4896103;29;20055;-62
2022/01/24 13:28:11;;;;;;;87.43;26.67;;;2.60;99.90;;;;;;4895325;29;20064;-60
2022/01/24 13:30:46;;;;;;;75.22;24.40;;;2.70;99.90;;;;;;4895881;29;20056;-62
2022/01/24 13:33:22;;;;;;;76.80;26.27;;;2.70;99.90;;;;;;4895556;29;20049;-62
2022/01/24 13:35:59;;;;;;;73.35;26.40;;;2.60;99.90;;;;;;4895946;29;20485;-60
2022/01/24 13:38:31;;;;;;;81.70;27.55;;;2.70;99.90;;;;;;4895887;29;20404;-60
2022/01/24 13:41:03;;;;;;;77.63;26.35;;;2.60;99.90;;;;;;4895624;29;20420;-61
2022/01/24 13:43:52;;;;;;;81.25;27.48;;;2.70;99.90;;;;;;4894127;29;20051;-58
2022/01/24 13:46:41;;;;;;;80.53;26.73;;;2.70;99.90;;;;;;4895844;29;20229;-61
2022/01/24 13:49:12;;;;;;;82.40;26.33;;;2.60;99.90;;;;;;4895798;29;20060;-60
2022/01/24 13:51:44;;;;;;;78.75;26.55;;;2.60;99.90;;;;;;4894767;29;20052;-66
2022/01/24 13:54:34;;;;;;;78.18;26.52;;;2.60;99.90;;;;;;4895244;29;20643;-64
2022/01/24 13:57:06;;;;;;;81.28;26.80;;;2.70;99.90;;;;;;4895513;29;20099;-62
2022/01/24 13:59:35;;;;;;;85.53;27.38;;;2.60;99.90;;;;;;4895447;29;20048;-63
2022/01/24 14:02:19;;;;;;;85.25;27.92;;;2.70;99.90;;;;;;4895533;29;20404;-62
2022/01/24 14:04:53;;;;;;;76.47;25.58;;;2.80;99.90;;;;;;4895199;29;20053;-62
2022/01/24 14:07:28;;;;;;;81.38;28.70;;;2.80;99.90;;;;;;4892104;29;20100;-62
2022/01/24 14:10:03;;;;;;;91.80;28.98;;;2.80;99.90;;;;;;4892164;29;20048;-64
2022/01/24 14:12:45;;;;;;;76.10;24.83;;;2.80;99.90;;;;;;4894932;29;20048;-66
2022/01/24 14:18:23;;;;;;;68.50;25.30;;;2.80;99.90;;;;;;4895092;29;20052;-60
2022/01/24 14:21:11;;;;;;;75.55;26.02;;;2.80;99.90;;;;;;4895140;29;20496;-66
2022/01/24 14:23:39;;;;;;;73.15;24.75;;;2.80;99.90;;;;;;4900845;29;20056;-66
2022/01/24 14:26:24;;;;;;;78.65;25.67;;;2.90;99.90;;;;;;4894949;29;20045;-61
2022/01/24 14:29:07;;;;;;;71.95;25.70;;;2.90;99.90;;;;;;4894772;29;20049;-62
2022/01/24 14:31:35;;;;;;;79.50;24.45;;;2.90;99.90;;;;;;4894728;29;20044;-63
2022/01/24 14:34:06;;;;;;;74.20;25.75;;;2.90;99.90;;;;;;4894650;29;20083;-63
2022/01/24 14:36:36;;;;;;;73.82;24.88;;;2.80;99.90;;;;;;4894756;29;20060;-62
2022/01/24 14:39:07;;;;;;;80.57;25.88;;;2.80;99.90;;;;;;4894409;29;20516;-65
2022/01/24 14:41:48;;;;;;;74.82;27.85;;;2.80;99.90;;;;;;4894490;29;20048;-63
2022/01/24 14:47:06;;;;;;;83.15;26.85;;;2.90;99.90;;;;;;4894492;29;20059;-61
2022/01/24 14:49:37;;;;;;;82.55;27.73;;;2.80;99.90;;;;;;4894211;29;20049;-60
2022/01/24 14:52:11;;;;;;;80.95;26.13;;;2.80;99.90;;;;;;4894673;29;20511;-60
2022/01/24 14:54:39;;;;;;;84.00;25.88;;;2.80;99.90;;;;;;4893701;29;20044;-60
2022/01/24 14:57:12;;;;;;;85.88;26.83;;;2.80;99.90;;;;;;4894511;29;20409;-60
2022/01/24 14:59:45;;;;;;;84.28;28.25;;;2.80;99.90;;;;;;4894118;29;20056;-57
2022/01/24 15:02:13;;;;;;;95.45;31.73;;;2.80;99.90;;;;;;4893941;29;20076;-61
2022/01/24 15:04:42;;;;;;;84.63;29.38;;;2.90;99.90;;;;;;4893756;29;20059;-60